Time;durP1;ratioP1;P1;durP2;ratioP2;P2;SDS_P1;SDS_P2;PMS_P1;PMS_P2;Temp;Humidity;BMP_temperature;BMP_pressure;BME280_temperature;BME280_humidity;BME280_pressure;Samples;Min_cycle;Max_cycle;Signal;HPM_P1;HPM_P2
2022/05/01 00:01:15;;;;;;;18.90;13.87;;;7.10;99.90;;;;;;5100637;28;20216;-51
2022/05/01 00:03:42;;;;;;;27.00;13.87;;;7.00;99.90;;;;;;5100334;28;20993;-51
2022/05/01 00:06:08;;;;;;;24.87;13.00;;;7.00;99.90;;;;;;5102608;28;20658;-51
2022/05/01 00:08:36;;;;;;;21.50;13.80;;;6.90;1.00;;;;;;5096030;28;20509;-51
2022/05/01 00:11:02;;;;;;;27.67;13.93;;;6.90;1.00;;;;;;5101869;28;20787;-51
2022/05/01 00:13:28;;;;;;;19.23;13.53;;;6.80;99.90;;;;;;5083547;28;20431;-51
2022/05/01 00:15:54;;;;;;;20.07;13.37;;;6.80;99.90;;;;;;5103549;28;20321;-51
2022/05/01 00:18:20;;;;;;;25.03;13.57;;;6.70;99.90;;;;;;5095433;28;20631;-51
2022/05/01 00:20:46;;;;;;;22.70;13.23;;;6.70;99.90;;;;;;5098278;28;20512;-51
2022/05/01 00:23:12;;;;;;;22.47;13.87;;;6.70;1.00;;;;;;5099356;28;21245;-51
2022/05/01 00:25:41;;;;;;;18.90;12.93;;;6.60;1.00;;;;;;5102238;28;20634;-51
2022/05/01 00:28:07;;;;;;;17.50;13.90;;;6.60;1.00;;;;;;5099899;28;20529;-51
2022/05/01 00:30:33;;;;;;;21.93;14.03;;;6.50;1.00;;;;;;5104082;28;21330;-51
2022/05/01 00:38:27;;;;;;;25.80;15.23;;;6.40;99.90;;;;;;5097092;28;20864;-52
2022/05/01 00:40:52;;;;;;;24.90;14.80;;;6.30;1.00;;;;;;5101427;28;20498;-51
2022/05/01 00:43:18;;;;;;;25.63;14.30;;;6.30;1.00;;;;;;5098366;28;20583;-51
2022/05/01 00:45:43;;;;;;;21.87;13.53;;;6.30;19.50;;;;;;5094208;28;20205;-51
2022/05/01 00:48:09;;;;;;;24.00;14.83;;;6.20;67.60;;;;;;5104570;28;20713;-51
2022/05/01 00:50:36;;;;;;;22.93;15.17;;;6.20;99.90;;;;;;5104243;28;20272;-51
2022/05/01 00:53:04;;;;;;;26.20;14.87;;;6.10;99.90;;;;;;5104541;28;20222;-51
2022/05/01 00:55:35;;;;;;;22.40;14.47;;;6.10;99.90;;;;;;5103697;28;20904;-51
2022/05/01 00:58:03;;;;;;;23.00;15.20;;;6.00;1.00;;;;;;5098646;28;20911;-51
2022/05/01 01:00:29;;;;;;;20.20;15.47;;;6.00;84.70;;;;;;5106324;27;20440;-51
2022/05/01 01:02:55;;;;;;;23.47;14.60;;;6.00;99.90;;;;;;5100426;27;20434;-52
2022/05/01 01:05:20;;;;;;;21.60;14.50;;;6.00;54.50;;;;;;5101755;27;20570;-51
2022/05/01 01:07:46;;;;;;;25.53;15.13;;;6.00;1.00;;;;;;5101816;27;20201;-51
2022/05/01 01:10:12;;;;;;;22.70;14.23;;;5.90;60.90;;;;;;5102650;28;20246;-52
2022/05/01 01:12:56;;;;;;;28.60;16.03;;;5.90;99.90;;;;;;5107592;28;20796;-52
2022/05/01 01:15:29;;;;;;;27.63;15.73;;;5.80;99.90;;;;;;5107143;28;20481;-52
2022/05/01 01:17:55;;;;;;;26.60;16.30;;;5.80;99.90;;;;;;5105220;27;20484;-52
2022/05/01 01:20:28;;;;;;;29.33;16.20;;;5.80;1.00;;;;;;5103628;27;20446;-52
2022/05/01 01:22:59;;;;;;;23.07;15.83;;;5.70;1.00;;;;;;5096645;28;20912;-52
2022/05/01 01:25:29;;;;;;;23.83;15.50;;;5.70;75.90;;;;;;5103338;27;20843;-52
2022/05/01 01:27:59;;;;;;;26.83;15.70;;;5.70;99.90;;;;;;5107914;27;20919;-52
2022/05/01 01:33:10;;;;;;;33.50;16.73;;;5.70;1.00;;;;;;5102067;27;20782;-52
2022/05/01 01:35:38;;;;;;;25.53;15.43;;;5.70;18.00;;;;;;5105457;27;20996;-52
2022/05/01 01:38:04;;;;;;;26.13;16.30;;;5.70;99.90;;;;;;5102103;27;20434;-52
2022/05/01 01:40:34;;;;;;;24.70;15.97;;;5.70;1.00;;;;;;5106287;27;20453;-52
2022/05/01 01:43:01;;;;;;;33.57;18.23;;;5.60;1.00;;;;;;5102111;28;20430;-52
2022/05/01 01:45:30;;;;;;;35.10;17.27;;;5.70;1.00;;;;;;5101701;27;20470;-52
2022/05/01 01:47:57;;;;;;;31.23;17.10;;;5.60;1.00;;;;;;5104205;28;20854;-52
2022/05/01 01:50:24;;;;;;;26.43;17.40;;;5.60;43.90;;;;;;5103548;28;20446;-52
2022/05/01 01:52:49;;;;;;;24.97;17.13;;;5.60;99.90;;;;;;5105496;27;20469;-52
2022/05/01 01:55:17;;;;;;;27.33;16.27;;;5.70;99.90;;;;;;5101768;28;20446;-52
2022/05/01 01:57:44;;;;;;;26.30;16.73;;;5.70;99.90;;;;;;5104052;27;22281;-52
2022/05/01 02:00:11;;;;;;;31.93;17.63;;;5.70;99.90;;;;;;5098592;28;20485;-52
2022/05/01 02:02:36;;;;;;;21.13;16.00;;;5.70;99.90;;;;;;5107482;27;21295;-52
2022/05/01 02:05:03;;;;;;;33.73;18.13;;;5.70;99.90;;;;;;5102480;28;20434;-52
2022/05/01 02:07:30;;;;;;;37.80;18.90;;;5.70;99.90;;;;;;5100887;28;20250;-52
2022/05/01 02:09:56;;;;;;;33.33;19.40;;;5.70;99.90;;;;;;5097076;28;20518;-52
2022/05/01 02:12:22;;;;;;;25.93;17.70;;;5.70;99.90;;;;;;5102174;27;20593;-52
2022/05/01 02:14:48;;;;;;;36.23;18.83;;;5.90;99.90;;;;;;5102677;27;20446;-52
2022/05/01 02:17:13;;;;;;;33.57;17.70;;;5.90;99.90;;;;;;5104030;28;20192;-52
2022/05/01 02:19:39;;;;;;;28.33;19.40;;;6.00;99.90;;;;;;5100492;27;20586;-52
2022/05/01 02:22:04;;;;;;;26.33;18.20;;;6.00;99.90;;;;;;5104268;28;20209;-52
2022/05/01 02:24:31;;;;;;;34.80;18.80;;;6.00;99.90;;;;;;5104410;27;20196;-52
2022/05/01 02:26:57;;;;;;;33.80;19.67;;;6.00;99.90;;;;;;5108220;28;21048;-52
2022/05/01 02:29:22;;;;;;;34.53;19.40;;;6.00;99.90;;;;;;5096477;27;20439;-52
2022/05/01 02:31:53;;;;;;;24.13;18.70;;;6.00;99.90;;;;;;5085991;28;20200;-52
2022/05/01 02:34:20;;;;;;;28.60;19.33;;;6.00;99.90;;;;;;5103174;27;20698;-52
2022/05/01 02:36:45;;;;;;;27.90;19.07;;;6.00;99.90;;;;;;5102222;28;20460;-52
2022/05/01 02:39:11;;;;;;;24.90;16.50;;;6.10;99.90;;;;;;5097671;28;20443;-52
2022/05/01 02:41:37;;;;;;;26.23;17.97;;;6.20;99.90;;;;;;5101735;28;20312;-52
2022/05/01 02:44:03;;;;;;;26.07;16.97;;;6.20;99.90;;;;;;5107629;28;20227;-52
2022/05/01 02:46:29;;;;;;;30.50;17.57;;;6.30;99.90;;;;;;5105979;28;20192;-52
2022/05/01 02:48:55;;;;;;;29.63;16.73;;;6.30;99.90;;;;;;5103593;28;20426;-52
2022/05/01 02:51:20;;;;;;;23.80;17.53;;;6.30;99.90;;;;;;5099708;28;20677;-52
2022/05/01 02:53:46;;;;;;;29.17;17.07;;;6.30;99.90;;;;;;5102487;28;20462;-52
2022/05/01 02:56:13;;;;;;;27.40;16.63;;;6.30;99.90;;;;;;5103581;27;20212;-52
2022/05/01 02:58:38;;;;;;;30.40;16.90;;;6.30;99.90;;;;;;5091115;28;20204;-51
2022/05/01 03:01:04;;;;;;;23.40;15.70;;;6.30;99.90;;;;;;5110027;28;21143;-51
2022/05/01 03:03:29;;;;;;;23.17;15.60;;;6.40;99.90;;;;;;5103446;28;20204;-52
2022/05/01 03:05:58;;;;;;;22.33;16.07;;;6.60;99.90;;;;;;5097122;28;20193;-51
2022/05/01 03:08:24;;;;;;;30.03;16.13;;;6.50;99.90;;;;;;5104296;28;20784;-52
2022/05/01 03:10:50;;;;;;;26.00;16.27;;;6.50;99.90;;;;;;5100529;27;20486;-52
2022/05/01 03:13:17;;;;;;;18.87;14.70;;;6.40;99.90;;;;;;5105412;27;20437;-52
2022/05/01 03:15:43;;;;;;;28.10;14.50;;;6.40;99.90;;;;;;5103806;28;20237;-52
2022/05/01 03:23:37;;;;;;;20.97;13.33;;;6.60;99.90;;;;;;5102511;28;20444;-52
2022/05/01 03:26:02;;;;;;;23.00;14.47;;;6.60;76.90;;;;;;5100074;28;20933;-52
2022/05/01 03:28:29;;;;;;;19.60;13.10;;;6.50;1.00;;;;;;5102029;28;20681;-52
2022/05/01 03:30:56;;;;;;;20.33;13.67;;;6.60;1.00;;;;;;5102916;27;20607;-52
2022/05/01 03:33:22;;;;;;;22.90;13.67;;;6.50;1.00;;;;;;5103839;28;20503;-52
2022/05/01 03:35:48;;;;;;;21.17;13.40;;;6.60;2.30;;;;;;5084778;28;20519;-51
2022/05/01 03:38:15;;;;;;;24.67;13.43;;;6.60;1.00;;;;;;5092264;28;20483;-51
2022/05/01 03:40:42;;;;;;;26.83;13.30;;;6.60;25.40;;;;;;5086171;28;20450;-52
2022/05/01 03:43:07;;;;;;;23.43;13.67;;;6.60;99.90;;;;;;5108916;28;20438;-51
2022/05/01 03:45:33;;;;;;;22.23;12.50;;;6.60;99.90;;;;;;5105019;28;20911;-51
2022/05/01 03:47:59;;;;;;;21.20;13.70;;;6.60;99.90;;;;;;5106064;28;20220;-51
2022/05/01 03:50:25;;;;;;;18.87;11.97;;;6.60;1.00;;;;;;5103256;27;20313;-51
2022/05/01 03:52:51;;;;;;;21.60;12.30;;;6.50;81.60;;;;;;5104361;28;20434;-51
2022/05/01 03:55:16;;;;;;;25.20;12.57;;;6.50;1.00;;;;;;5098743;28;20224;-51
2022/05/01 03:57:42;;;;;;;29.53;12.30;;;6.50;1.00;;;;;;5095096;28;20830;-52
2022/05/01 04:00:18;;;;;;;17.80;11.93;;;6.50;1.00;;;;;;5101817;28;20286;-52
2022/05/01 04:02:45;;;;;;;17.13;12.50;;;6.40;1.00;;;;;;5102190;28;20666;-52
2022/05/01 04:05:12;;;;;;;24.43;11.97;;;6.40;29.60;;;;;;5098243;28;20488;-52
2022/05/01 04:07:38;;;;;;;19.43;11.70;;;6.40;99.90;;;;;;5097798;27;20532;-52
2022/05/01 04:10:04;;;;;;;26.40;11.63;;;6.30;99.90;;;;;;5104820;28;20445;-52
2022/05/01 04:12:36;;;;;;;24.53;13.53;;;6.20;1.00;;;;;;5100436;28;20447;-52
2022/05/01 04:15:02;;;;;;;18.73;11.40;;;6.20;99.90;;;;;;5101491;28;20442;-51
2022/05/01 04:17:27;;;;;;;21.63;13.27;;;6.20;1.00;;;;;;5096901;28;20480;-52
2022/05/01 04:19:53;;;;;;;20.03;12.60;;;6.20;1.00;;;;;;5105366;28;20541;-52
2022/05/01 04:22:19;;;;;;;20.20;13.70;;;6.20;99.90;;;;;;5104362;28;20223;-52
2022/05/01 04:24:45;;;;;;;24.37;13.20;;;6.20;99.90;;;;;;5104685;28;20196;-52
2022/05/01 04:27:10;;;;;;;26.73;14.10;;;6.10;99.90;;;;;;5105434;28;20797;-53
2022/05/01 04:29:36;;;;;;;20.97;14.07;;;6.10;96.70;;;;;;5107082;28;20464;-52
2022/05/01 04:32:01;;;;;;;22.30;13.87;;;6.10;99.90;;;;;;5103858;28;20627;-52
2022/05/01 04:34:27;;;;;;;29.50;14.87;;;6.10;99.90;;;;;;5103324;28;20212;-52
2022/05/01 04:36:52;;;;;;;21.07;15.30;;;6.00;1.00;;;;;;5111134;28;20216;-53
2022/05/01 04:39:18;;;;;;;22.47;15.00;;;6.00;1.00;;;;;;5098626;27;20193;-52
2022/05/01 04:41:44;;;;;;;23.40;14.53;;;6.00;99.90;;;;;;5110868;27;20582;-52
2022/05/01 04:44:10;;;;;;;23.80;14.47;;;6.00;99.90;;;;;;5106750;28;20246;-52
2022/05/01 04:46:36;;;;;;;26.50;15.27;;;6.00;1.00;;;;;;5106713;27;20287;-52
2022/05/01 04:49:02;;;;;;;22.53;14.90;;;6.00;1.00;;;;;;5106477;27;20575;-52
2022/05/01 04:51:28;;;;;;;30.97;15.10;;;6.00;68.60;;;;;;5110747;27;20433;-52
2022/05/01 04:53:53;;;;;;;26.80;15.40;;;6.00;1.00;;;;;;5110127;28;20440;-52
2022/05/01 04:59:07;;;;;;;25.60;15.70;;;6.00;99.90;;;;;;5107802;27;20756;-57
2022/05/01 05:01:36;;;;;;;22.30;15.23;;;6.00;1.00;;;;;;5109710;28;20469;-57
2022/05/01 05:04:03;;;;;;;27.43;15.80;;;6.10;1.00;;;;;;5102149;27;20437;-57
2022/05/01 05:06:29;;;;;;;23.53;16.47;;;6.20;99.90;;;;;;5110809;28;20425;-57
2022/05/01 05:11:39;;;;;;;21.83;15.40;;;6.30;99.90;;;;;;5110598;28;20448;-56
2022/05/01 05:14:06;;;;;;;24.83;16.30;;;6.40;99.90;;;;;;5105288;27;20430;-57
2022/05/01 05:16:32;;;;;;;24.70;14.80;;;6.40;1.00;;;;;;5100537;27;20223;-57
2022/05/01 05:18:57;;;;;;;25.97;15.40;;;6.50;1.00;;;;;;5105286;27;20518;-57
2022/05/01 05:21:23;;;;;;;22.20;15.83;;;6.60;1.00;;;;;;5109072;27;20477;-57
2022/05/01 05:23:48;;;;;;;21.50;14.27;;;6.60;1.00;;;;;;5107163;27;20200;-57
2022/05/01 05:26:14;;;;;;;23.03;14.80;;;6.70;1.00;;;;;;5108582;28;20193;-56
2022/05/01 05:28:39;;;;;;;24.30;14.80;;;6.80;1.00;;;;;;5101461;28;20207;-57
2022/05/01 05:31:05;;;;;;;21.00;13.93;;;6.90;1.00;;;;;;5104352;28;20203;-56
2022/05/01 05:33:30;;;;;;;19.00;14.07;;;7.00;1.00;;;;;;5087500;28;20671;-57
2022/05/01 05:35:56;;;;;;;22.43;14.03;;;7.20;99.90;;;;;;5105878;27;20226;-57
2022/05/01 05:38:22;;;;;;;16.17;11.70;;;7.40;99.90;;;;;;5106792;27;20644;-56
2022/05/01 05:40:47;;;;;;;20.03;11.50;;;7.60;99.90;;;;;;5103545;27;20196;-56
2022/05/01 05:43:13;;;;;;;16.03;12.20;;;7.70;1.00;;;;;;5101350;27;20200;-56
2022/05/01 05:45:38;;;;;;;14.33;10.17;;;7.90;99.90;;;;;;5101646;28;20337;-56
2022/05/01 05:48:05;;;;;;;18.43;10.23;;;8.10;99.90;;;;;;5105759;27;20732;-56
2022/05/01 05:50:30;;;;;;;13.80;9.20;;;8.30;1.00;;;;;;5103094;28;20665;-55
2022/05/01 05:52:56;;;;;;;14.27;9.20;;;8.50;99.90;;;;;;5101796;28;20446;-56
2022/05/01 05:55:21;;;;;;;19.57;9.40;;;8.70;99.90;;;;;;5094067;28;20185;-56
2022/05/01 05:57:47;;;;;;;13.27;8.70;;;8.90;99.90;;;;;;5106096;28;20193;-55
2022/05/01 06:00:13;;;;;;;15.20;9.10;;;9.20;99.90;;;;;;5103155;27;20207;-55
2022/05/01 06:02:39;;;;;;;19.03;7.90;;;9.50;99.90;;;;;;5102645;27;20300;-56
2022/05/01 06:05:06;;;;;;;14.47;7.00;;;9.70;1.00;;;;;;5103882;28;20540;-56
2022/05/01 06:07:32;;;;;;;18.30;7.90;;;9.70;1.00;;;;;;5099568;28;20248;-56
2022/05/01 06:09:57;;;;;;;10.73;7.13;;;9.80;1.00;;;;;;5096043;28;20438;-55
2022/05/01 06:12:23;;;;;;;14.63;7.03;;;9.90;1.00;;;;;;5105816;28;20211;-55
2022/05/01 06:14:48;;;;;;;19.07;6.80;;;10.10;1.00;;;;;;5102435;27;20663;-55
2022/05/01 06:17:14;;;;;;;13.53;5.97;;;10.30;1.00;;;;;;5104080;28;20183;-55
2022/05/01 06:19:39;;;;;;;15.77;6.23;;;10.40;1.00;;;;;;5094618;28;20239;-56
2022/05/01 06:22:05;;;;;;;8.90;5.23;;;10.50;1.00;;;;;;5106476;28;20216;-55
2022/05/01 06:24:31;;;;;;;12.40;5.50;;;10.60;1.00;;;;;;5093878;28;20200;-55
2022/05/01 06:26:57;;;;;;;13.00;5.30;;;10.70;1.00;;;;;;5103871;28;20513;-55
2022/05/01 06:29:23;;;;;;;16.13;5.07;;;10.90;1.00;;;;;;5098376;28;20185;-54
2022/05/01 06:31:49;;;;;;;7.47;4.87;;;11.10;1.00;;;;;;5104452;28;20558;-55
2022/05/01 06:34:15;;;;;;;13.30;4.70;;;11.30;1.00;;;;;;5098644;28;20207;-54
2022/05/01 06:36:41;;;;;;;13.17;4.90;;;11.40;1.00;;;;;;5097438;28;20469;-54
2022/05/01 06:39:09;;;;;;;8.47;3.97;;;11.50;1.00;;;;;;5096108;28;20438;-55
2022/05/01 06:41:35;;;;;;;9.27;3.67;;;11.50;1.00;;;;;;5096480;27;20470;-54
2022/05/01 06:44:00;;;;;;;10.10;4.33;;;11.40;1.00;;;;;;5100321;28;20996;-55
2022/05/01 06:46:26;;;;;;;5.77;3.70;;;11.50;1.00;;;;;;5108796;27;20204;-54
2022/05/01 06:48:51;;;;;;;8.10;4.70;;;11.80;1.00;;;;;;5102494;28;20192;-54
2022/05/01 06:51:18;;;;;;;9.17;4.07;;;12.00;1.00;;;;;;5109787;27;20202;-54
2022/05/01 06:53:43;;;;;;;8.37;4.23;;;12.10;1.00;;;;;;5099237;27;20532;-54
2022/05/01 06:56:09;;;;;;;5.80;4.20;;;12.10;1.00;;;;;;5104963;28;20513;-53
2022/05/01 06:58:35;;;;;;;11.03;5.23;;;12.30;1.00;;;;;;5100238;28;20545;-54
2022/05/01 07:01:00;;;;;;;10.40;4.87;;;12.50;1.00;;;;;;5097739;28;20207;-54
2022/05/01 07:03:26;;;;;;;5.80;4.20;;;12.70;99.90;;;;;;5106647;28;20442;-53
2022/05/01 07:05:52;;;;;;;9.00;4.50;;;12.90;99.90;;;;;;5103616;28;21150;-53
2022/05/01 07:08:17;;;;;;;7.27;4.83;;;13.10;99.90;;;;;;5101119;28;20199;-54
2022/05/01 07:10:43;;;;;;;8.20;4.70;;;13.30;99.90;;;;;;5103628;28;20176;-54
2022/05/01 07:13:10;;;;;;;9.20;5.00;;;13.50;99.90;;;;;;5102574;28;20192;-54
2022/05/01 07:15:36;;;;;;;7.10;4.63;;;13.40;99.90;;;;;;5104189;28;20563;-54
2022/05/01 07:18:02;;;;;;;9.37;4.90;;;13.20;99.90;;;;;;5095043;28;20467;-53
2022/05/01 07:20:27;;;;;;;9.23;4.97;;;13.40;99.90;;;;;;5104798;28;21130;-51
2022/05/01 07:22:53;;;;;;;7.83;5.03;;;13.50;99.90;;;;;;5098296;28;20222;-54
2022/05/01 07:25:18;;;;;;;9.60;3.90;;;13.60;99.90;;;;;;5096764;28;20192;-53
2022/05/01 07:27:44;;;;;;;8.13;3.37;;;13.60;99.90;;;;;;5103982;28;20193;-53
2022/05/01 07:30:10;;;;;;;7.63;4.17;;;13.60;99.90;;;;;;5103227;28;20629;-53
2022/05/01 07:32:35;;;;;;;9.60;4.77;;;13.70;99.90;;;;;;5098332;28;20200;-54
2022/05/01 07:35:01;;;;;;;7.33;5.10;;;13.90;99.90;;;;;;5099645;28;20670;-54
2022/05/01 07:37:27;;;;;;;7.57;4.80;;;13.90;99.90;;;;;;5103019;28;20188;-54
2022/05/01 07:39:54;;;;;;;9.17;5.93;;;14.20;99.90;;;;;;5099046;28;20422;-53
2022/05/01 07:42:21;;;;;;;8.77;5.20;;;14.30;99.90;;;;;;5101779;28;20219;-54
2022/05/01 07:44:46;;;;;;;7.17;5.07;;;14.30;99.90;;;;;;5101773;28;20415;-52
2022/05/01 07:47:12;;;;;;;8.53;4.73;;;14.50;99.90;;;;;;5103980;28;20422;-50
2022/05/01 07:49:37;;;;;;;6.80;4.30;;;14.80;99.90;;;;;;5098965;28;20193;-50
2022/05/01 07:52:03;;;;;;;6.00;5.10;;;14.70;99.90;;;;;;5101139;28;20188;-50
2022/05/01 07:54:29;;;;;;;7.20;4.80;;;14.40;99.90;;;;;;5097887;28;20626;-50
2022/05/01 07:56:55;;;;;;;9.33;4.60;;;14.50;99.90;;;;;;5104541;28;20196;-50
2022/05/01 07:59:20;;;;;;;6.63;4.70;;;14.70;99.90;;;;;;5097712;28;20982;-50
2022/05/01 08:01:46;;;;;;;7.50;4.90;;;15.10;99.90;;;;;;5103544;28;20221;-49
2022/05/01 08:04:29;;;;;;;7.63;5.27;;;15.50;99.90;;;;;;5102455;28;20288;-50
2022/05/01 08:07:03;;;;;;;8.93;5.17;;;15.80;99.90;;;;;;5102707;28;20177;-50
2022/05/01 08:09:30;;;;;;;6.97;4.50;;;16.00;99.90;;;;;;5092452;28;20423;-50
2022/05/01 08:11:56;;;;;;;7.77;4.60;;;16.30;99.90;;;;;;5102438;28;20525;-50
2022/05/01 08:14:21;;;;;;;7.70;4.63;;;16.70;99.90;;;;;;5097740;28;21346;-50
2022/05/01 08:16:48;;;;;;;8.30;4.30;;;16.80;99.90;;;;;;5100793;28;20193;-50
2022/05/01 08:21:59;;;;;;;6.63;4.50;;;16.80;99.90;;;;;;5101157;28;21009;-50
2022/05/01 08:24:24;;;;;;;6.33;4.67;;;17.00;99.90;;;;;;5105385;28;20426;-50
2022/05/01 08:26:50;;;;;;;8.13;4.20;;;17.20;99.90;;;;;;5105717;28;20762;-50
2022/05/01 08:29:16;;;;;;;6.23;4.50;;;17.50;99.90;;;;;;5092854;28;20200;-50
2022/05/01 08:31:45;;;;;;;6.57;3.73;;;17.50;99.90;;;;;;5092982;28;20254;-50
2022/05/01 08:34:11;;;;;;;4.00;2.97;;;17.30;99.90;;;;;;5097932;28;20196;-50
2022/05/01 08:36:37;;;;;;;7.23;3.43;;;17.40;99.90;;;;;;5096889;28;20825;-50
2022/05/01 08:39:03;;;;;;;4.10;3.03;;;17.20;99.90;;;;;;5100108;28;20200;-51
2022/05/01 08:41:31;;;;;;;4.03;2.93;;;17.20;99.90;;;;;;5100759;28;20553;-50
2022/05/01 08:43:57;;;;;;;6.57;3.33;;;17.00;99.90;;;;;;5094342;28;20462;-50
2022/05/01 08:46:30;;;;;;;3.90;2.60;;;17.00;99.90;;;;;;5097077;28;20523;-50
2022/05/01 08:49:04;;;;;;;6.17;2.90;;;17.20;99.90;;;;;;5099565;28;20422;-50
2022/05/01 08:51:41;;;;;;;10.97;3.57;;;17.50;99.90;;;;;;5108573;28;20437;-50
2022/05/01 08:54:09;;;;;;;6.27;2.70;;;17.60;99.90;;;;;;5094206;28;20421;-50
2022/05/01 08:56:36;;;;;;;2.73;2.27;;;17.40;99.90;;;;;;5101384;28;20434;-50
2022/05/01 08:59:05;;;;;;;2.80;1.90;;;17.50;99.90;;;;;;5096862;28;20786;-50
2022/05/01 09:01:34;;;;;;;4.30;2.47;;;17.40;99.90;;;;;;5104844;28;20464;-50
2022/05/01 09:04:00;;;;;;;3.37;2.20;;;17.50;99.90;;;;;;5100438;28;20918;-50
2022/05/01 09:06:27;;;;;;;3.27;2.10;;;17.70;99.90;;;;;;5093777;28;20415;-53
2022/05/01 09:08:53;;;;;;;7.77;2.47;;;17.80;99.90;;;;;;5102700;28;20878;-53
2022/05/01 09:14:05;;;;;;;9.30;3.23;;;17.90;99.90;;;;;;5101674;28;20218;-50
2022/05/01 09:16:32;;;;;;;5.23;2.40;;;17.70;99.90;;;;;;5098672;28;20441;-50
2022/05/01 09:18:58;;;;;;;3.77;1.77;;;17.90;99.90;;;;;;5096926;28;20474;-50
2022/05/01 09:21:25;;;;;;;2.97;1.60;;;17.90;99.90;;;;;;5096561;28;20490;-50
2022/05/01 09:23:50;;;;;;;3.10;2.10;;;17.70;99.90;;;;;;5106769;27;20928;-50
2022/05/01 09:26:19;;;;;;;2.87;2.37;;;17.50;99.90;;;;;;5108152;27;20193;-50
2022/05/01 09:28:48;;;;;;;3.47;2.30;;;17.40;99.90;;;;;;5106833;28;20198;-51
2022/05/01 09:31:14;;;;;;;5.90;2.43;;;17.00;99.90;;;;;;5103457;27;20442;-50
2022/05/01 09:33:39;;;;;;;1.67;1.57;;;17.10;99.90;;;;;;5099962;28;20515;-51
2022/05/01 09:36:05;;;;;;;4.97;1.93;;;17.00;99.90;;;;;;5100049;28;20188;-50
2022/05/01 09:38:31;;;;;;;5.37;1.67;;;16.50;99.90;;;;;;5109549;28;20197;-50
2022/05/01 09:41:00;;;;;;;3.07;1.90;;;16.30;99.90;;;;;;5108249;28;20204;-50
2022/05/01 09:43:41;;;;;;;2.23;2.03;;;15.90;99.90;;;;;;5106237;28;20204;-50
2022/05/01 09:46:21;;;;;;;3.37;1.93;;;15.70;99.90;;;;;;5103256;28;20423;-50
2022/05/01 09:49:03;;;;;;;5.93;2.10;;;15.30;99.90;;;;;;5105630;28;20464;-50
2022/05/01 09:51:33;;;;;;;3.10;1.87;;;15.10;99.90;;;;;;5104960;28;20505;-50
2022/05/01 09:54:01;;;;;;;4.73;1.77;;;15.10;99.90;;;;;;5097082;28;20480;-50
2022/05/01 09:56:26;;;;;;;3.90;1.70;;;14.80;99.90;;;;;;5106973;28;20839;-50
2022/05/01 09:59:00;;;;;;;5.20;1.70;;;14.70;99.90;;;;;;5105223;28;20469;-50
2022/05/01 10:01:26;;;;;;;2.23;1.83;;;14.70;99.90;;;;;;5103484;27;20216;-50
2022/05/01 10:03:52;;;;;;;1.90;1.60;;;14.60;99.90;;;;;;5104500;28;20965;-52
2022/05/01 10:06:19;;;;;;;4.20;1.67;;;14.60;99.90;;;;;;5101075;28;20418;-50
2022/05/01 10:08:46;;;;;;;4.93;1.80;;;14.50;99.90;;;;;;5104332;27;20469;-50
2022/05/01 10:11:16;;;;;;;2.00;1.80;;;14.60;99.90;;;;;;5106323;27;20438;-50
2022/05/01 10:13:46;;;;;;;2.23;1.80;;;14.70;99.90;;;;;;5106378;27;20430;-50
2022/05/01 10:16:15;;;;;;;4.90;2.17;;;14.70;99.90;;;;;;5106574;27;20901;-50
2022/05/01 10:18:43;;;;;;;2.70;1.50;;;14.60;99.90;;;;;;5104587;27;20560;-50
2022/05/01 10:21:08;;;;;;;2.17;1.50;;;14.70;99.90;;;;;;5104761;28;21038;-50
2022/05/01 10:23:35;;;;;;;3.23;1.50;;;14.70;99.90;;;;;;5103850;28;20450;-51
2022/05/01 10:26:23;;;;;;;2.60;1.80;;;14.80;99.90;;;;;;5106259;27;20263;-50
2022/05/01 10:29:04;;;;;;;2.00;1.80;;;14.90;99.90;;;;;;5102203;27;20445;-50
2022/05/01 10:34:48;;;;;;;2.33;1.80;;;15.30;99.90;;;;;;5104711;28;20433;-50
2022/05/01 10:37:22;;;;;;;5.43;1.83;;;15.50;99.90;;;;;;5107390;28;20438;-50
2022/05/01 10:39:49;;;;;;;1.60;1.50;;;15.60;99.90;;;;;;5100489;27;20442;-51
2022/05/01 10:42:46;;;;;;;2.27;1.90;;;15.80;99.90;;;;;;5108383;28;20476;-50
2022/05/01 10:45:21;;;;;;;3.00;1.73;;;15.90;99.90;;;;;;5102625;27;21014;-50
2022/05/01 10:47:48;;;;;;;3.13;1.63;;;15.70;99.90;;;;;;5104551;28;20398;-50
2022/05/01 10:50:20;;;;;;;1.57;1.47;;;15.70;99.90;;;;;;5106540;28;21043;-50
2022/05/01 10:53:05;;;;;;;1.60;1.50;;;15.70;99.90;;;;;;5101044;28;20513;-50
2022/05/01 10:55:52;;;;;;;2.00;1.77;;;16.00;99.90;;;;;;5102434;28;20410;-50
2022/05/01 10:58:30;;;;;;;2.83;1.80;;;16.60;99.90;;;;;;5097961;28;20899;-50
2022/05/01 11:00:57;;;;;;;6.00;1.40;;;17.20;99.90;;;;;;5097134;28;20419;-50
2022/05/01 11:03:26;;;;;;;2.03;1.50;;;17.40;99.90;;;;;;5097329;28;20522;-51
2022/05/01 11:05:55;;;;;;;3.70;1.87;;;17.20;99.90;;;;;;5087915;28;20486;-50
2022/05/01 11:08:27;;;;;;;1.93;1.63;;;16.70;99.90;;;;;;5086997;28;20441;-50
2022/05/01 11:10:57;;;;;;;5.43;1.87;;;16.20;99.90;;;;;;5104464;28;20810;-50
2022/05/01 11:13:31;;;;;;;2.30;1.70;;;15.90;99.90;;;;;;5100337;28;20427;-50
2022/05/01 11:15:57;;;;;;;3.10;1.50;;;15.50;99.90;;;;;;5103464;28;20836;-50
2022/05/01 11:18:43;;;;;;;2.13;1.20;;;15.20;99.90;;;;;;5102317;28;20519;-50
2022/05/01 11:21:23;;;;;;;1.60;1.50;;;15.10;99.90;;;;;;5092484;28;20901;-50
2022/05/01 11:24:03;;;;;;;2.10;1.50;;;14.80;99.90;;;;;;5104692;28;20458;-50
2022/05/01 11:26:29;;;;;;;3.17;1.60;;;14.70;99.90;;;;;;5104088;28;20514;-50
2022/05/01 11:29:06;;;;;;;2.97;1.73;;;14.80;99.90;;;;;;5097118;28;20418;-50
2022/05/01 11:31:38;;;;;;;2.93;1.60;;;14.80;99.90;;;;;;5095360;28;20450;-50
2022/05/01 11:34:15;;;;;;;2.90;2.00;;;14.90;99.90;;;;;;5103307;28;20426;-50
2022/05/01 11:37:13;;;;;;;85.23;38.80;;;14.90;99.90;;;;;;5090868;28;20426;-50
2022/05/01 11:40:09;;;;;;;8.67;2.07;;;14.80;99.90;;;;;;5064931;28;20443;-50
2022/05/01 11:42:36;;;;;;;1.83;1.67;;;14.80;99.90;;;;;;5100868;28;20469;-50
2022/05/01 11:45:04;;;;;;;2.70;1.60;;;15.00;99.90;;;;;;5103664;28;20472;-55
2022/05/01 11:47:34;;;;;;;3.53;1.90;;;15.00;99.90;;;;;;5105338;28;20499;-50
2022/05/01 11:50:01;;;;;;;2.23;1.70;;;15.10;99.90;;;;;;5101626;28;20430;-50
2022/05/01 11:52:27;;;;;;;6.10;1.93;;;15.20;99.90;;;;;;5097626;28;20802;-50
2022/05/01 11:54:58;;;;;;;2.80;1.70;;;15.40;99.90;;;;;;5102018;28;20435;-50
2022/05/01 12:03:07;;;;;;;3.47;1.97;;;15.80;99.90;;;;;;5103132;28;20558;-50
2022/05/01 12:05:43;;;;;;;2.67;1.90;;;16.00;99.90;;;;;;5099421;28;20661;-50
2022/05/01 12:08:09;;;;;;;2.67;1.90;;;16.10;99.90;;;;;;5104636;28;20434;-50
2022/05/01 12:10:40;;;;;;;2.50;1.87;;;16.10;99.90;;;;;;5104417;28;20437;-50
2022/05/01 12:13:37;;;;;;;2.63;1.60;;;16.10;99.90;;;;;;5103671;28;20997;-50
2022/05/01 12:16:02;;;;;;;4.93;1.50;;;16.10;99.90;;;;;;5096713;28;20915;-50
2022/05/01 12:18:28;;;;;;;2.50;1.80;;;16.30;99.90;;;;;;5105195;28;20478;-50
2022/05/01 12:20:53;;;;;;;2.80;1.70;;;16.40;99.90;;;;;;5095825;28;20205;-50
2022/05/01 12:23:20;;;;;;;2.10;1.53;;;16.40;99.90;;;;;;5098252;28;20551;-50
2022/05/01 12:25:51;;;;;;;3.37;1.90;;;16.60;99.90;;;;;;5102852;28;20193;-50
2022/05/01 12:28:18;;;;;;;2.63;1.50;;;16.70;99.90;;;;;;5104272;28;20426;-50
2022/05/01 12:30:51;;;;;;;2.60;1.70;;;16.90;99.90;;;;;;5097909;28;20419;-50
2022/05/01 12:33:26;;;;;;;4.63;1.73;;;17.20;99.90;;;;;;5097625;28;20451;-50
2022/05/01 12:35:59;;;;;;;3.10;1.50;;;17.20;99.90;;;;;;5100701;28;20445;-50
2022/05/01 12:38:29;;;;;;;2.57;1.60;;;17.20;99.90;;;;;;5101381;28;20469;-50
2022/05/01 12:43:59;;;;;;;3.07;1.53;;;17.40;99.90;;;;;;5099652;28;20418;-51
2022/05/01 12:46:29;;;;;;;1.67;1.57;;;17.40;99.90;;;;;;5099137;28;20434;-50
2022/05/01 12:48:56;;;;;;;6.23;1.80;;;17.40;99.90;;;;;;5096932;28;20426;-50
2022/05/01 12:51:24;;;;;;;2.33;1.40;;;17.40;99.90;;;;;;5095785;28;20469;-50
2022/05/01 12:54:06;;;;;;;1.60;1.50;;;17.50;99.90;;;;;;5092771;28;20423;-50
2022/05/01 12:56:34;;;;;;;2.80;1.40;;;17.30;99.90;;;;;;5105736;28;20430;-50
2022/05/01 12:59:00;;;;;;;9.70;1.60;;;17.00;99.90;;;;;;5097006;28;20463;-49
2022/05/01 13:01:27;;;;;;;1.60;1.30;;;16.80;99.90;;;;;;5104478;28;20462;-50
2022/05/01 13:03:54;;;;;;;1.57;1.47;;;16.60;99.90;;;;;;5107351;28;20425;-50
2022/05/01 13:06:22;;;;;;;2.33;1.47;;;16.40;99.90;;;;;;5105258;28;20418;-50
2022/05/01 13:08:50;;;;;;;1.80;1.40;;;16.20;99.90;;;;;;5097807;28;20419;-50
2022/05/01 13:11:27;;;;;;;5.33;1.83;;;16.10;99.90;;;;;;5106605;27;20442;-50
2022/05/01 13:13:52;;;;;;;1.67;1.57;;;15.90;99.90;;;;;;5106736;28;20432;-50
2022/05/01 13:16:39;;;;;;;2.47;1.50;;;15.80;99.90;;;;;;5098076;28;20439;-50
2022/05/01 13:19:10;;;;;;;1.70;1.53;;;15.50;99.90;;;;;;5097318;27;20227;-53
2022/05/01 13:21:46;;;;;;;1.60;1.50;;;15.40;99.90;;;;;;5101632;28;20474;-50
2022/05/01 13:24:20;;;;;;;6.90;1.83;;;15.20;99.90;;;;;;5101472;28;20426;-50
2022/05/01 13:26:46;;;;;;;1.73;1.50;;;15.20;99.90;;;;;;5102538;28;20447;-50